createdAt,value
2022-08-25T00:02:57.887Z,0.02
2022-08-25T00:08:11.176Z,0.014
2022-08-25T00:13:23.642Z,0.031
2022-08-25T00:18:43.133Z,0.028
2022-08-25T00:23:55.245Z,0.024
2022-08-25T00:29:07.545Z,0.015
2022-08-25T00:34:19.617Z,-0.012
2022-08-25T00:39:31.796Z,-0.005
2022-08-25T00:44:44.058Z,-0.023
2022-08-25T00:49:56.594Z,0.034
2022-08-25T00:55:08.712Z,0.021
2022-08-25T01:00:20.811Z,0.004
2022-08-25T01:05:33.066Z,0.004
2022-08-25T01:10:45.158Z,0.018
2022-08-25T01:15:57.532Z,0.031
2022-08-25T01:21:10.091Z,0.016
2022-08-25T01:26:23.267Z,0.011
2022-08-25T01:31:46.888Z,0.007
2022-08-25T01:36:59.009Z,0.003
2022-08-25T01:42:11.203Z,0.004
2022-08-25T01:47:23.460Z,0.007
2022-08-25T01:52:35.371Z,-0.009
2022-08-25T01:57:47.413Z,-0.004
2022-08-25T02:02:59.458Z,0.003
2022-08-25T02:08:26.650Z,-0.001
2022-08-25T02:13:38.746Z,0.001
2022-08-25T02:18:51.314Z,0.009
2022-08-25T02:24:03.435Z,0.008
2022-08-25T02:29:15.438Z,-0.021
2022-08-25T02:34:27.596Z,0.025
2022-08-25T02:39:39.611Z,-0.027
2022-08-25T02:44:51.738Z,0.043
2022-08-25T02:50:03.747Z,-0.022
2022-08-25T02:55:15.937Z,0.022
2022-08-25T03:00:28.138Z,-0.039
2022-08-25T03:05:40.228Z,-0.042
2022-08-25T03:10:52.408Z,0.003
2022-08-25T03:16:04.553Z,-0.009
2022-08-25T03:21:24.300Z,-0.008
2022-08-25T03:26:52.714Z,-0.002
2022-08-25T03:32:04.727Z,0.016
2022-08-25T03:37:17.176Z,0.02
2022-08-25T03:42:29.186Z,0.001
2022-08-25T03:47:41.267Z,0.02
2022-08-25T03:52:53.387Z,0.018
2022-08-25T03:58:05.709Z,0.009
2022-08-25T04:03:18.426Z,0.006
2022-08-25T04:08:30.526Z,0.023
2022-08-25T04:13:42.938Z,-0.005
2022-08-25T04:18:55.188Z,0.016
2022-08-25T04:24:07.408Z,0.023
2022-08-25T04:29:19.562Z,0.003
2022-08-25T04:34:36.669Z,-0.003
2022-08-25T04:39:48.596Z,-0.007
2022-08-25T04:45:00.952Z,-0.018
2022-08-25T04:50:12.960Z,0.035
2022-08-25T04:55:25.141Z,-0.001
2022-08-25T05:00:37.348Z,0.008
2022-08-25T05:05:50.302Z,0.007
2022-08-25T05:11:02.350Z,-0.003
2022-08-25T05:16:16.457Z,0.008
2022-08-25T05:21:29.264Z,0.013
2022-08-25T05:26:41.454Z,-0.036
2022-08-25T05:31:53.538Z,0.032
2022-08-25T05:37:09.252Z,0.04
2022-08-25T05:42:28.452Z,0.043
2022-08-25T05:47:40.601Z,0.038
2022-08-25T05:52:52.907Z,0.036
2022-08-25T05:58:05.354Z,0.034
2022-08-25T06:03:24.866Z,0.039
2022-08-25T06:08:37.302Z,0.043
2022-08-25T06:13:51.492Z,0.046
2022-08-25T06:19:03.679Z,0.03
2022-08-25T06:24:16.165Z,0.047
2022-08-25T06:29:28.533Z,0.022
2022-08-25T06:34:41.269Z,0.033
2022-08-25T06:39:53.601Z,0.048
2022-08-25T06:45:06.087Z,0.031
2022-08-25T06:50:18.536Z,0.051
2022-08-25T06:55:31.012Z,0.035
2022-08-25T07:00:43.363Z,0.03
2022-08-25T07:05:56.022Z,0.037
2022-08-25T07:11:08.284Z,0.036
2022-08-25T07:16:29.677Z,0.019
2022-08-25T07:21:44.530Z,0.038
2022-08-25T07:27:04.602Z,0.044
2022-08-25T07:32:17.102Z,0.05
2022-08-25T07:37:47.371Z,0.056
2022-08-25T07:42:58.642Z,0.038
2022-08-25T07:48:12.306Z,0.033
2022-08-25T07:53:33.217Z,0.041
2022-08-25T07:58:45.662Z,0.052
2022-08-25T08:04:00.463Z,0.041
2022-08-25T08:09:18.510Z,0.04
2022-08-25T08:14:31.105Z,0.044
2022-08-25T08:19:45.216Z,0.036
2022-08-25T08:24:57.566Z,0.02
2022-08-25T08:30:10.025Z,0.015
2022-08-25T08:35:22.554Z,-0.018
2022-08-25T08:40:35.363Z,0.022
2022-08-25T08:45:48.376Z,0.08
2022-08-25T08:51:01.887Z,0.036
2022-08-25T08:56:24.164Z,0.048
2022-08-25T09:01:45.063Z,0.061
2022-08-25T09:07:06.236Z,0.041
2022-08-25T09:12:21.246Z,0.03
2022-08-25T09:17:33.970Z,0.02
2022-08-25T09:22:46.778Z,0.022
2022-08-25T09:28:00.333Z,0.028
2022-08-25T09:33:12.989Z,0.06
2022-08-25T09:38:34.121Z,0.028
2022-08-25T09:43:46.669Z,-0.029
2022-08-25T09:49:02.719Z,0.023
2022-08-25T09:54:16.242Z,0.012
2022-08-25T09:59:30.901Z,0.031
2022-08-25T10:04:51.032Z,0.042
2022-08-25T10:10:04.185Z,0.045
2022-08-25T10:15:17.009Z,0.025
2022-08-25T10:20:40.382Z,0.034
2022-08-25T10:26:01.749Z,-0.003
2022-08-25T10:31:20.483Z,0.026
2022-08-25T10:36:34.652Z,0
2022-08-25T10:41:48.762Z,0.008
2022-08-25T10:47:08.643Z,-0.047
2022-08-25T10:52:21.229Z,-0.006
2022-08-25T10:57:34.212Z,0.04
2022-08-25T11:02:48.216Z,0.004
2022-08-25T11:08:01.504Z,-0.01
2022-08-25T11:13:13.924Z,0.07
2022-08-25T11:18:26.525Z,0.066
2022-08-25T11:23:39.404Z,0.327
2022-08-25T11:28:53.542Z,0.443
2022-08-25T11:34:09.934Z,0.154
2022-08-25T11:39:23.156Z,0.246
2022-08-25T11:44:45.578Z,0.188
2022-08-25T11:55:16.905Z,0.077
2022-08-25T12:05:49.787Z,0.105
2022-08-25T12:11:05.170Z,0.108
2022-08-25T12:37:02.804Z,0.33
2022-08-25T12:42:22.026Z,0.368
2022-08-25T12:47:44.696Z,0.244
2022-08-25T12:52:57.348Z,0.239
2022-08-25T12:58:10.497Z,-0.042
2022-08-25T13:18:54.447Z,0.09
2022-08-25T13:24:06.531Z,0.132
2022-08-25T13:34:30.406Z,0.055
2022-08-25T13:39:56.276Z,-0.04
2022-08-25T13:55:50.381Z,-0.019
2022-08-25T14:16:33.550Z,0.015
2022-08-25T14:21:46.514Z,0.016
2022-08-25T14:42:39.744Z,0.014
2022-08-25T14:47:53.561Z,0.1
2022-08-25T15:03:28.205Z,0.043
2022-08-25T15:08:42.896Z,-0.008
2022-08-25T15:19:07.081Z,0.02
2022-08-25T15:29:29.909Z,-0.031
2022-08-25T15:34:42.531Z,0.054
2022-08-25T15:39:55.679Z,-0.04
2022-08-25T15:45:09.081Z,0.075
2022-08-25T15:50:25.396Z,-0.035
2022-08-25T16:00:51.892Z,-0.027
2022-08-25T16:06:11.020Z,-0.007
2022-08-25T16:11:27.501Z,-0.025
2022-08-25T16:16:58.133Z,-0.042
2022-08-25T16:22:15.301Z,-0.042
2022-08-25T16:32:39.401Z,-0.009
2022-08-25T16:53:24.751Z,0.022
2022-08-25T16:58:38.663Z,-0.015
2022-08-25T17:24:34.122Z,-0.037
2022-08-25T17:29:46.729Z,-0.014
2022-08-25T17:34:59.492Z,-0.048
2022-08-25T17:40:14.510Z,-0.028
2022-08-25T17:45:27.641Z,-0.019
2022-08-25T17:50:41.764Z,-0.018
2022-08-25T18:01:04.329Z,-0.046
2022-08-25T18:06:16.981Z,-0.022
2022-08-25T18:11:31.081Z,-0.034
2022-08-25T18:16:44.189Z,-0.006
2022-08-25T18:21:56.551Z,-0.007
2022-08-25T18:27:09.851Z,-0.007
2022-08-25T18:32:22.451Z,-0.021
2022-08-25T18:37:44.814Z,0.003
2022-08-25T18:42:57.170Z,-0.006
2022-08-25T18:48:10.829Z,0.001
2022-08-25T18:53:30.309Z,0.024
2022-08-25T18:59:07.981Z,0.008
2022-08-25T19:04:20.222Z,-0.016
2022-08-25T19:09:43.255Z,0.021
2022-08-25T19:14:56.165Z,0.008
2022-08-25T19:20:11.013Z,0.016
2022-08-25T19:25:22.656Z,0
2022-08-25T19:30:35.697Z,-0.013
2022-08-25T19:35:48.614Z,0.011
2022-08-25T19:41:00.955Z,0.011
2022-08-25T19:46:13.532Z,0.009
2022-08-25T19:51:32.135Z,-0.012
2022-08-25T19:56:54.170Z,-0.002
2022-08-25T20:02:06.130Z,-0.011
2022-08-25T20:07:24.070Z,-0.006
2022-08-25T20:12:36.595Z,0.002
2022-08-25T20:17:50.568Z,0.007
2022-08-25T20:23:10.317Z,0.006
2022-08-25T20:28:22.472Z,-0.034
2022-08-25T20:33:34.996Z,0.019
2022-08-25T20:38:47.984Z,-0.003
2022-08-25T20:44:01.605Z,-0.026
2022-08-25T20:49:13.918Z,0.028
2022-08-25T20:54:26.614Z,0.011
2022-08-25T20:59:39.183Z,0.015
2022-08-25T21:04:51.478Z,0.008
2022-08-25T21:10:04.246Z,-0.004
2022-08-25T21:15:18.085Z,0.011
2022-08-25T21:20:30.082Z,0.009
2022-08-25T21:25:42.514Z,0.011
2022-08-25T21:30:56.071Z,0
2022-08-25T21:36:08.705Z,0.011
2022-08-25T21:41:21.065Z,0.004
2022-08-25T21:46:33.586Z,0.008
2022-08-25T21:51:46.129Z,0.009
2022-08-25T21:56:58.428Z,0.012
2022-08-25T22:02:10.934Z,-0.014
2022-08-25T22:07:24.587Z,0.029
2022-08-25T22:12:36.779Z,-0.004
2022-08-25T22:17:49.986Z,-0.037
2022-08-25T22:23:02.337Z,0.024
2022-08-25T22:28:14.980Z,0.006
2022-08-25T22:33:27.307Z,0
2022-08-25T22:38:41.186Z,-0.003
2022-08-25T22:43:53.486Z,-0.001
2022-08-25T22:49:05.878Z,0.002
2022-08-25T22:54:20.216Z,0
2022-08-25T22:59:32.584Z,0.005
2022-08-25T23:04:45.309Z,0
2022-08-25T23:10:09.305Z,0.001
2022-08-25T23:15:19.230Z,0.018
2022-08-25T23:20:31.389Z,0.009
2022-08-25T23:25:44.619Z,-0.029
2022-08-25T23:30:59.430Z,0.022
2022-08-25T23:36:11.251Z,0.016
2022-08-25T23:41:23.494Z,0.006
2022-08-25T23:46:35.860Z,0
2022-08-25T23:51:48.089Z,0.009
2022-08-25T23:57:06.729Z,0.009
